North Hills, NC

5:57 PM EDT on July 03, 2015 (GMT -0400)
Salem's Eastgate WX | | Change Station
CLOSE
Current Station
Personal Weather Station
Location: Raleigh, NC
Elevation: 318 ft
Nearby Weather Stations

Elev 318 ft 35.84 °N, 78.62 °W | Updated 3 seconds ago

Overcast
Overcast
76.1 °F
Feels Like 77 °F
N
0.7
Wind Variable Wind from SSW
Gusts 2.0 mph

Today
High -- | Low -- °F
--% Chance of Precip.
Yesterday
High -- | Low -- °F
Precip. -- in
6:02 AM 8:34 PM
Waning Gibbous, 96% visible
Pressure 29.90 in
Visibility 8.0 miles
Clouds Scattered Clouds 1400 ft
Mostly Cloudy 2200 ft
Overcast 4000 ft
Heat Index 77 °F
Dew Point 71 °F
Humidity 85%
Rainfall 0.02 in
Snow Depth Not available.
UV 1 out of 12
Pollen .50 out of 12
Air Quality Not available.
Flu Activity Not available.
METAR KRDU 032151Z 21007KT 8SM SCT014 BKN022 OVC040 25/22 A2991 RMK AO2 SLP123 T02500222 $

More Conditions Fewer Conditions

Pressure 29.90 in
Visibility 8.0 miles
Clouds Scattered Clouds 1400 ft
Mostly Cloudy 2200 ft
Overcast 4000 ft
Heat Index 77 °F
Dew Point 71 °F
Humidity 85%
Rainfall 0.02 in
Snow Depth Not available.
UV 1 out of 12
Pollen .50 out of 12
Air Quality Not available.
Flu Activity Not available.
METAR KRDU 032151Z 21007KT 8SM SCT014 BKN022 OVC040 25/22 A2991 RMK AO2 SLP123 T02500222 $

More Conditions Fewer Conditions

10-Day Weather Forecast

×

Almanac

Astronomy

Jul. 03, 2015 Rise Set
Actual Time
Civil Twilight
Nautical Twilight
Astronomical Twilight
Moon
Length of Visible Light
Length of Day
Tomorrow will be .
, % of the Moon is Illuminated

Today's Extremes

State Highs State Lows

Community

WunderPhotos

Upload Photos

1,834,782 photos uploaded!

WunderBlogs® & News

Nearby

Air Quality

  Air Quality AQ Index Pollutant
Not available.

Snow Depth

Station Depth Elevation

Earthquake Activity

City Distance Mag. Time & Date
Minimum magnitude displayed is 2.5.

Coastal Water Temperatures

Place Temperature

Stations

Nearby Weather Stations

Station Location Temp. Windchill Dew Point Humidity Wind Precip. Elev Updated Type